Time;durP1;ratioP1;P1;durP2;ratioP2;P2;SDS_P1;SDS_P2;PMS_P1;PMS_P2;Temp;Humidity;BMP_temperature;BMP_pressure;BME280_temperature;BME280_humidity;BME280_pressure;Samples;Min_cycle;Max_cycle;Signal;HPM_P1;HPM_P2
2022/03/17 00:00:02;;;;;;;21.15;17.92;;;;;;;10.27;100.00;101862.13;5285104;28;20037;-82
2022/03/17 00:02:35;;;;;;;20.20;17.48;;;;;;;10.20;100.00;101861.75;5282165;28;20095;-82
2022/03/17 00:05:12;;;;;;;22.33;18.17;;;;;;;10.24;100.00;101857.91;5266596;28;20075;-82
2022/03/17 00:07:43;;;;;;;20.98;17.83;;;;;;;10.18;100.00;101861.00;5284220;28;20067;-82
2022/03/17 00:10:16;;;;;;;21.15;17.83;;;;;;;10.16;100.00;101844.28;5284284;28;20061;-82
2022/03/17 00:12:48;;;;;;;24.48;18.38;;;;;;;10.16;100.00;101852.28;5284316;28;20086;-82
2022/03/17 00:15:19;;;;;;;22.40;18.30;;;;;;;10.15;100.00;101856.78;5284312;28;20345;-82
2022/03/17 00:17:50;;;;;;;22.20;18.35;;;;;;;10.10;100.00;101845.59;5284425;28;20520;-82
2022/03/17 00:20:23;;;;;;;22.98;19.38;;;;;;;10.12;100.00;101853.50;5280921;28;20494;-82
2022/03/17 00:22:54;;;;;;;22.02;18.10;;;;;;;10.11;100.00;101851.78;5265216;28;20128;-82
2022/03/17 00:25:26;;;;;;;20.63;17.85;;;;;;;10.07;100.00;101843.16;5283668;28;20135;-83
2022/03/17 00:27:57;;;;;;;20.30;18.10;;;;;;;10.07;100.00;101845.81;5283565;28;20029;-82
2022/03/17 00:30:28;;;;;;;19.85;17.73;;;;;;;10.03;100.00;101853.19;5265435;28;20060;-82
2022/03/17 00:33:00;;;;;;;25.20;17.85;;;;;;;9.95;100.00;101850.25;5284182;28;20124;-82
2022/03/17 00:35:38;;;;;;;23.20;17.58;;;;;;;9.97;100.00;101853.63;5283683;28;20076;-82
2022/03/17 00:38:13;;;;;;;23.15;17.67;;;;;;;9.90;100.00;101851.56;5282307;28;20132;-82
2022/03/17 00:40:46;;;;;;;23.38;17.77;;;;;;;9.91;100.00;101851.44;5281370;28;20451;-82
2022/03/17 00:43:17;;;;;;;20.80;16.77;;;;;;;9.87;100.00;101854.44;5280374;28;20061;-82
2022/03/17 00:45:48;;;;;;;21.83;18.13;;;;;;;9.88;100.00;101861.50;5282878;28;20096;-82
2022/03/17 00:48:20;;;;;;;22.08;18.25;;;;;;;9.89;100.00;101865.84;5282467;28;20052;-82
2022/03/17 00:50:51;;;;;;;22.27;19.48;;;;;;;9.93;100.00;101868.16;5283349;28;20029;-82
2022/03/17 00:53:22;;;;;;;23.67;18.33;;;;;;;9.91;100.00;101856.78;5282878;28;20028;-82
2022/03/17 00:55:54;;;;;;;23.15;19.15;;;;;;;9.90;100.00;101867.53;5283189;28;20021;-83
2022/03/17 00:58:25;;;;;;;18.88;16.88;;;;;;;9.85;100.00;101854.53;5280829;28;39068;-82
2022/03/17 01:00:56;;;;;;;20.42;17.60;;;;;;;9.92;100.00;101869.16;5282728;28;20466;-83
2022/03/17 01:03:28;;;;;;;24.05;20.13;;;;;;;9.92;100.00;101865.63;5282257;28;20425;-82
2022/03/17 01:05:59;;;;;;;25.42;18.63;;;;;;;9.89;100.00;101865.84;5282586;28;20160;-82
2022/03/17 01:08:30;;;;;;;22.38;18.70;;;;;;;9.79;100.00;101863.00;5282539;28;20028;-82
2022/03/17 01:11:02;;;;;;;23.83;18.75;;;;;;;9.83;100.00;101878.66;5263733;28;20025;-81
2022/03/17 01:13:34;;;;;;;24.63;18.83;;;;;;;9.86;100.00;101869.59;5264721;28;20029;-82
2022/03/17 01:16:06;;;;;;;23.30;18.55;;;;;;;9.91;100.00;101872.75;5281793;28;20029;-82
2022/03/17 01:18:38;;;;;;;26.27;19.60;;;;;;;9.96;100.00;101877.78;5264836;28;20024;-82
2022/03/17 01:21:09;;;;;;;23.17;19.60;;;;;;;9.91;100.00;101851.44;5277866;28;20041;-82
2022/03/17 01:23:40;;;;;;;22.65;19.42;;;;;;;9.92;100.00;101841.63;5282496;28;20027;-82
2022/03/17 01:26:12;;;;;;;22.95;19.05;;;;;;;10.00;100.00;101860.56;5282009;28;20049;-82
2022/03/17 01:28:43;;;;;;;27.05;19.92;;;;;;;9.98;100.00;101854.50;5282064;28;20478;-82
2022/03/17 01:31:14;;;;;;;28.25;19.00;;;;;;;10.00;100.00;101861.41;5281926;28;20508;-82
2022/03/17 01:33:45;;;;;;;25.35;19.17;;;;;;;10.06;100.00;101872.59;5282139;28;20025;-82
2022/03/17 01:36:17;;;;;;;25.40;20.65;;;;;;;10.09;100.00;101864.38;5244485;28;1047704;-82
2022/03/17 01:38:48;;;;;;;23.45;19.17;;;;;;;10.07;100.00;101848.50;5281938;28;20521;-82
2022/03/17 01:41:20;;;;;;;24.60;18.98;;;;;;;10.09;100.00;101859.03;5282993;28;20064;-82
2022/03/17 01:43:51;;;;;;;22.65;20.00;;;;;;;10.11;100.00;101857.94;5282947;28;20485;-82
2022/03/17 01:46:22;;;;;;;25.88;18.60;;;;;;;10.13;100.00;101866.72;5283189;28;20037;-82
2022/03/17 01:48:54;;;;;;;23.20;20.25;;;;;;;10.12;100.00;101870.31;5283940;28;20017;-82
2022/03/17 01:51:25;;;;;;;22.58;19.48;;;;;;;10.14;100.00;101871.06;5283414;28;20136;-82
2022/03/17 01:53:56;;;;;;;23.08;20.25;;;;;;;10.10;100.00;101864.25;5282851;28;34986;-82
2022/03/17 01:56:28;;;;;;;25.35;20.13;;;;;;;10.10;100.00;101861.59;5281852;28;20032;-82
2022/03/17 01:58:59;;;;;;;23.77;20.33;;;;;;;10.14;100.00;101863.06;5283447;28;20035;-82
2022/03/17 02:01:30;;;;;;;26.42;20.02;;;;;;;10.11;100.00;101865.94;5282954;28;20144;-82
2022/03/17 02:04:01;;;;;;;23.75;19.13;;;;;;;10.13;100.00;101860.50;5281913;28;41015;-82
2022/03/17 02:06:33;;;;;;;23.98;18.63;;;;;;;10.13;100.00;101861.38;5282691;28;20024;-82
2022/03/17 02:09:05;;;;;;;25.25;19.38;;;;;;;10.12;100.00;101862.31;5282704;28;20025;-83
2022/03/17 02:14:28;;;;;;;24.50;19.85;;;;;;;10.09;100.00;101869.72;5283548;28;20037;-83
2022/03/17 02:16:59;;;;;;;24.75;20.00;;;;;;;10.12;100.00;101873.00;5279613;28;20416;-82
2022/03/17 02:19:30;;;;;;;26.35;19.67;;;;;;;10.09;100.00;101867.88;5283451;28;20051;-82
2022/03/17 02:22:03;;;;;;;27.35;19.85;;;;;;;10.14;100.00;101886.22;5279459;28;20053;-82
2022/03/17 02:27:25;;;;;;;27.77;19.60;;;;;;;10.12;100.00;101880.16;5279073;28;20462;-82
2022/03/17 02:29:56;;;;;;;25.55;20.30;;;;;;;10.13;100.00;101882.69;5282819;28;20087;-82
2022/03/17 02:32:28;;;;;;;25.98;20.27;;;;;;;10.15;100.00;101890.56;5264038;28;20111;-82
2022/03/17 02:35:04;;;;;;;26.25;20.17;;;;;;;10.17;100.00;101894.00;5281501;28;20545;-82
2022/03/17 02:37:36;;;;;;;;;;;;;;;10.22;100.00;101900.69;5282824;28;20052;-82
2022/03/17 02:40:10;;;;;;;25.75;20.92;;;;;;;10.21;100.00;101901.63;5282234;28;19913;-82
2022/03/17 02:42:42;;;;;;;26.27;21.30;;;;;;;10.26;100.00;101909.28;5278749;28;20493;-82
2022/03/17 02:45:13;;;;;;;32.47;23.30;;;;;;;10.29;100.00;101898.41;5279146;28;20067;-82
2022/03/17 02:47:45;;;;;;;33.25;23.10;;;;;;;10.38;100.00;101915.56;5282344;28;20079;-82
2022/03/17 02:50:17;;;;;;;31.98;24.88;;;;;;;10.43;100.00;101909.88;5281540;28;20033;-82
2022/03/17 02:52:49;;;;;;;35.95;28.67;;;;;;;10.67;100.00;101928.50;5281948;28;20104;-82
2022/03/17 02:55:20;;;;;;;36.22;27.25;;;;;;;10.66;100.00;101922.34;5264256;28;20086;-82
2022/03/17 02:57:51;;;;;;;36.70;31.10;;;;;;;10.66;100.00;101941.00;5282301;28;20021;-82
2022/03/17 03:00:23;;;;;;;40.17;29.13;;;;;;;10.59;100.00;101937.09;5282047;28;20386;-83
2022/03/17 03:02:54;;;;;;;33.58;27.23;;;;;;;10.66;100.00;101948.16;5263587;28;20417;-82
2022/03/17 03:05:26;;;;;;;29.27;24.02;;;;;;;10.59;100.00;101958.44;5281925;28;20173;-83
2022/03/17 03:07:58;;;;;;;25.75;21.38;;;;;;;10.41;100.00;101958.00;5262754;28;20021;-83
2022/03/17 03:10:30;;;;;;;22.23;18.50;;;;;;;10.39;100.00;101965.25;5263365;28;20370;-83
2022/03/17 03:13:02;;;;;;;22.73;18.30;;;;;;;10.18;100.00;101973.00;5263300;28;20029;-83
2022/03/17 03:15:34;;;;;;;19.58;16.60;;;;;;;10.11;100.00;101987.75;5280930;28;20025;-83
2022/03/17 03:18:05;;;;;;;18.13;15.48;;;;;;;10.12;100.00;101997.44;5281394;28;20017;-82
2022/03/17 03:20:38;;;;;;;15.63;13.98;;;;;;;9.97;100.00;102008.22;5272099;28;20017;-83
2022/03/17 03:23:10;;;;;;;15.25;13.70;;;;;;;9.82;100.00;102007.53;5279151;28;20033;-83
2022/03/17 03:25:41;;;;;;;17.50;14.40;;;;;;;9.80;100.00;102016.56;5280901;28;20083;-83
2022/03/17 03:28:12;;;;;;;14.82;13.30;;;;;;;9.66;100.00;102012.25;5280223;28;20394;-84
2022/03/17 03:30:44;;;;;;;15.25;13.32;;;;;;;9.67;100.00;102029.91;5280501;28;20241;-83
2022/03/17 03:33:15;;;;;;;14.40;12.88;;;;;;;9.69;100.00;102038.66;5280847;28;20036;-83
2022/03/17 03:38:36;;;;;;;14.88;12.85;;;;;;;9.46;100.00;102049.09;5280767;28;20501;-83
2022/03/17 03:41:07;;;;;;;14.00;12.23;;;;;;;9.53;100.00;102067.31;5281613;28;20040;-83
2022/03/17 03:43:39;;;;;;;16.08;14.40;;;;;;;9.39;100.00;102058.47;5280649;28;20367;-83
2022/03/17 03:46:10;;;;;;;17.20;14.95;;;;;;;9.37;100.00;102063.03;5263531;28;20033;-83
2022/03/17 03:48:42;;;;;;;17.63;15.90;;;;;;;9.30;100.00;102067.09;5281536;28;20049;-83
2022/03/17 03:51:13;;;;;;;17.30;15.25;;;;;;;9.28;100.00;102091.16;5282167;28;20029;-83
2022/03/17 03:56:34;;;;;;;17.95;16.05;;;;;;;9.06;100.00;102106.84;5277771;28;20148;-83
2022/03/17 03:59:11;;;;;;;18.83;16.83;;;;;;;9.00;100.00;102118.75;5280727;28;20131;-83
2022/03/17 04:01:43;;;;;;;22.33;18.40;;;;;;;8.93;100.00;102114.78;5274014;28;20056;-83
2022/03/17 04:04:18;;;;;;;25.40;20.58;;;;;;;8.78;100.00;102118.44;5265702;28;20022;-83
2022/03/17 04:06:51;;;;;;;24.70;19.80;;;;;;;8.76;100.00;102131.00;5281850;28;20025;-83
2022/03/17 04:09:27;;;;;;;26.35;20.48;;;;;;;8.63;100.00;102131.78;5281150;28;20025;-84
2022/03/17 04:11:59;;;;;;;25.20;19.65;;;;;;;8.70;100.00;102153.53;5268789;28;20026;-83
2022/03/17 04:14:31;;;;;;;25.40;17.98;;;;;;;8.72;100.00;102150.78;5262797;28;20037;-83
2022/03/17 04:17:03;;;;;;;26.40;19.45;;;;;;;8.67;100.00;102169.69;5261589;28;20022;-84
2022/03/17 04:19:34;;;;;;;24.20;17.02;;;;;;;8.62;100.00;102187.75;5277774;28;20029;-83
2022/03/17 04:22:07;;;;;;;25.98;18.83;;;;;;;8.46;100.00;102172.75;5274642;28;20105;-84
2022/03/17 04:24:38;;;;;;;23.45;17.92;;;;;;;8.49;100.00;102193.00;5260874;28;20104;-83
2022/03/17 04:27:10;;;;;;;23.40;17.23;;;;;;;8.30;100.00;102201.22;5270688;28;20113;-84
2022/03/17 04:29:41;;;;;;;19.10;16.10;;;;;;;8.28;100.00;102209.28;5276853;28;20399;-84
2022/03/17 04:32:12;;;;;;;21.13;16.35;;;;;;;8.25;100.00;102221.91;5255573;28;20016;-84
2022/03/17 04:34:43;;;;;;;25.63;17.85;;;;;;;8.11;100.00;102233.38;5277095;28;20013;-84
2022/03/17 04:37:15;;;;;;;22.88;15.98;;;;;;;8.05;100.00;102234.59;5279312;28;20052;-84
2022/03/17 04:39:46;;;;;;;29.52;16.95;;;;;;;8.08;100.00;102241.53;5280823;28;20028;-84
2022/03/17 04:42:18;;;;;;;30.50;17.10;;;;;;;7.98;100.00;102253.63;5261679;28;20124;-84
2022/03/17 04:44:49;;;;;;;23.08;16.63;;;;;;;7.99;100.00;102248.25;5281477;28;20351;-84
2022/03/17 04:47:21;;;;;;;21.85;14.02;;;;;;;7.86;100.00;102256.09;5284066;28;20033;-84
2022/03/17 04:49:52;;;;;;;17.75;11.55;;;;;;;7.82;100.00;102262.53;5284209;28;20025;-84
2022/03/17 04:55:14;;;;;;;21.77;13.80;;;;;;;7.73;100.00;102274.56;5281796;28;20033;-84
2022/03/17 04:57:46;;;;;;;19.58;12.65;;;;;;;7.69;100.00;102286.28;5283757;28;20036;-84
2022/03/17 05:00:20;;;;;;;20.48;13.43;;;;;;;7.63;100.00;102277.84;5284399;28;20478;-84
2022/03/17 05:02:52;;;;;;;23.05;14.77;;;;;;;7.63;100.00;102299.09;5283774;28;20134;-84
2022/03/17 05:05:23;;;;;;;25.58;15.10;;;;;;;7.67;100.00;102304.09;5284376;28;20029;-85
2022/03/17 05:07:57;;;;;;;24.95;15.43;;;;;;;7.60;100.00;102317.84;5283849;28;20041;-85
2022/03/17 05:10:28;;;;;;;26.05;15.85;;;;;;;7.54;100.00;102327.00;5283126;28;20041;-84
2022/03/17 05:12:59;;;;;;;22.10;14.63;;;;;;;7.58;100.00;102332.03;5283939;28;20464;-84
2022/03/17 05:15:31;;;;;;;23.90;14.95;;;;;;;7.61;100.00;102341.66;5283678;28;20100;-84
2022/03/17 05:18:05;;;;;;;29.25;13.00;;;;;;;7.42;100.00;102355.09;5283902;28;20090;-83
2022/03/17 05:20:38;;;;;;;22.00;11.55;;;;;;;7.39;100.00;102344.63;5262628;28;20398;-84
2022/03/17 05:23:16;;;;;;;19.15;8.30;;;;;;;7.46;100.00;102374.38;5265880;28;20037;-85
2022/03/17 05:25:48;;;;;;;15.00;8.93;;;;;;;7.31;100.00;102374.28;5283200;28;20024;-84
2022/03/17 05:28:20;;;;;;;15.65;8.55;;;;;;;7.29;100.00;102370.84;5283151;28;20029;-83
2022/03/17 05:30:51;;;;;;;14.73;7.18;;;;;;;7.19;100.00;102383.75;5283173;28;20099;-84
2022/03/17 05:33:23;;;;;;;20.08;7.75;;;;;;;7.14;100.00;102383.13;5284221;28;20381;-84
2022/03/17 05:35:55;;;;;;;14.88;7.38;;;;;;;7.07;100.00;102388.88;5284645;28;21032;-84
2022/03/17 05:38:26;;;;;;;12.20;7.22;;;;;;;7.14;100.00;102411.47;5283813;28;20053;-83
2022/03/17 05:40:57;;;;;;;17.40;7.50;;;;;;;7.11;100.00;102412.47;5284353;28;20036;-84
2022/03/17 05:43:29;;;;;;;14.73;7.22;;;;;;;7.08;100.00;102417.09;5284103;28;20042;-84
2022/03/17 05:46:00;;;;;;;11.07;6.00;;;;;;;7.07;100.00;102416.25;5266370;28;20032;-83
2022/03/17 05:48:31;;;;;;;15.13;6.55;;;;;;;7.07;100.00;102440.13;5283990;28;20029;-84
2022/03/17 05:51:03;;;;;;;15.10;5.68;;;;;;;7.07;100.00;102437.47;5285015;28;20123;-84
2022/03/17 05:53:34;;;;;;;13.38;6.10;;;;;;;7.09;100.00;102435.59;5284232;28;20032;-83
2022/03/17 05:56:05;;;;;;;13.40;6.18;;;;;;;7.02;100.00;102443.97;5274126;28;20075;-83
2022/03/17 05:58:36;;;;;;;10.60;5.43;;;;;;;7.05;100.00;102442.00;5267891;28;20108;-83
2022/03/17 06:01:08;;;;;;;15.07;5.70;;;;;;;7.08;100.00;102459.56;5276996;28;20047;-83
2022/03/17 06:03:39;;;;;;;13.32;5.72;;;;;;;7.06;100.00;102469.41;5284342;28;20029;-83
2022/03/17 06:06:10;;;;;;;11.90;5.30;;;;;;;7.03;100.00;102481.03;5285102;28;20036;-84
2022/03/17 06:08:41;;;;;;;16.58;5.75;;;;;;;7.08;100.00;102484.31;5267044;28;20037;-84
2022/03/17 06:11:13;;;;;;;12.05;5.63;;;;;;;7.06;100.00;102487.97;5263423;28;20029;-83
2022/03/17 06:13:44;;;;;;;14.27;5.38;;;;;;;6.95;100.00;102496.47;5263332;28;20082;-83
2022/03/17 06:16:15;;;;;;;13.20;5.40;;;;;;;6.94;100.00;102502.72;5263762;28;20021;-83
2022/03/17 06:18:47;;;;;;;15.07;5.43;;;;;;;6.90;100.00;102493.22;5283592;28;20037;-83
2022/03/17 06:21:18;;;;;;;9.88;5.45;;;;;;;6.94;100.00;102521.28;5283083;28;20036;-83
2022/03/17 06:23:50;;;;;;;10.32;5.40;;;;;;;6.98;100.00;102529.03;5281357;28;20029;-84
2022/03/17 06:26:21;;;;;;;13.30;5.70;;;;;;;6.98;100.00;102525.53;5282807;28;20052;-83
2022/03/17 06:28:52;;;;;;;19.65;5.88;;;;;;;6.94;100.00;102539.84;5282265;28;20033;-83
2022/03/17 06:31:24;;;;;;;13.57;6.00;;;;;;;6.92;100.00;102537.28;5276495;28;21218;-83
2022/03/17 06:33:55;;;;;;;11.40;5.30;;;;;;;6.93;100.00;102546.97;5279978;28;20029;-84
2022/03/17 06:36:27;;;;;;;11.52;5.90;;;;;;;6.94;100.00;102543.38;5280367;28;20021;-83
2022/03/17 06:38:58;;;;;;;10.20;4.85;;;;;;;6.96;100.00;102559.19;5281903;28;20039;-83
2022/03/17 06:41:30;;;;;;;13.13;5.25;;;;;;;6.93;100.00;102564.69;5264526;28;20037;-83
2022/03/17 06:44:01;;;;;;;10.00;4.97;;;;;;;6.88;100.00;102569.34;5283056;28;20466;-83
2022/03/17 06:46:32;;;;;;;10.52;5.13;;;;;;;6.90;100.00;102576.28;5283386;28;20109;-83
2022/03/17 06:49:03;;;;;;;11.20;5.22;;;;;;;6.89;100.00;102581.66;5263561;28;20025;-83
2022/03/17 06:51:35;;;;;;;9.07;5.18;;;;;;;6.84;100.00;102575.72;5280208;28;20138;-83
2022/03/17 06:54:06;;;;;;;14.00;5.15;;;;;;;6.91;100.00;102593.94;5261229;28;20033;-83
2022/03/17 06:56:37;;;;;;;16.08;5.10;;;;;;;6.92;100.00;102606.25;5280115;28;20446;-84
2022/03/17 06:59:09;;;;;;;9.70;4.13;;;;;;;6.97;100.00;102598.94;5265083;28;20491;-83
2022/03/17 07:01:40;;;;;;;11.70;3.58;;;;;;;7.03;100.00;102611.06;5282923;28;20473;-84
2022/03/17 07:04:11;;;;;;;8.63;2.70;;;;;;;7.07;100.00;102609.94;5262509;28;20060;-83
2022/03/17 07:06:42;;;;;;;11.55;2.95;;;;;;;7.09;100.00;102616.03;5280136;28;20025;-83
2022/03/17 07:09:14;;;;;;;11.35;3.17;;;;;;;7.19;100.00;102624.41;5278176;28;20024;-83
2022/03/17 07:11:47;;;;;;;8.80;2.20;;;;;;;7.30;100.00;102639.78;5259989;28;21650;-83
2022/03/17 07:14:18;;;;;;;8.55;1.55;;;;;;;7.27;100.00;102629.31;5278832;28;20101;-83
2022/03/17 07:16:49;;;;;;;9.85;2.53;;;;;;;7.29;100.00;102638.94;5280726;28;20031;-83
2022/03/17 07:19:20;;;;;;;6.25;2.42;;;;;;;7.30;100.00;102642.44;5280966;28;20083;-83
2022/03/17 07:21:53;;;;;;;6.05;2.00;;;;;;;7.36;100.00;102652.75;5280499;28;20033;-83
2022/03/17 07:24:24;;;;;;;12.75;2.50;;;;;;;7.34;100.00;102647.50;5282300;28;20035;-83
2022/03/17 07:26:55;;;;;;;9.88;2.40;;;;;;;7.31;100.00;102654.75;5281792;28;20029;-83
2022/03/17 07:29:30;;;;;;;10.07;2.70;;;;;;;7.30;100.00;102666.34;5263967;28;20479;-83
2022/03/17 07:32:02;;;;;;;7.97;2.45;;;;;;;7.28;100.00;102668.22;5263364;28;20033;-83
2022/03/17 07:34:33;;;;;;;4.40;1.77;;;;;;;7.24;100.00;102693.16;5279215;28;20036;-82
2022/03/17 07:37:04;;;;;;;10.65;2.10;;;;;;;7.21;100.00;102682.72;5281679;28;20141;-83
2022/03/17 07:39:36;;;;;;;9.48;2.25;;;;;;;7.29;100.00;102693.81;5281585;28;20470;-82
2022/03/17 07:42:08;;;;;;;11.23;2.40;;;;;;;7.34;100.00;102705.91;5282365;28;20044;-83
2022/03/17 07:44:40;;;;;;;5.38;1.77;;;;;;;7.36;100.00;102708.50;5282317;28;20056;-83
2022/03/17 07:47:11;;;;;;;8.93;1.90;;;;;;;7.41;100.00;102702.97;5281753;28;20029;-83
2022/03/17 07:49:43;;;;;;;8.75;1.98;;;;;;;7.45;100.00;102710.72;5280511;28;20025;-82
2022/03/17 07:52:14;;;;;;;16.75;3.08;;;;;;;7.56;100.00;102705.72;5280123;28;20033;-83
2022/03/17 07:54:46;;;;;;;9.20;2.33;;;;;;;7.59;100.00;102710.03;5266109;28;20063;-83
2022/03/17 07:57:19;;;;;;;7.78;1.67;;;;;;;7.62;100.00;102716.97;5279716;28;20029;-84
2022/03/17 07:59:50;;;;;;;7.82;1.52;;;;;;;7.74;100.00;102729.63;5277760;28;20026;-83
2022/03/17 08:02:22;;;;;;;7.28;1.55;;;;;;;7.69;100.00;102715.72;5273948;28;20203;-83
2022/03/17 08:04:53;;;;;;;6.20;1.70;;;;;;;7.81;100.00;102723.06;5281431;28;20025;-83
2022/03/17 08:07:26;;;;;;;9.05;1.75;;;;;;;7.99;100.00;102746.97;5281301;28;20029;-83
2022/03/17 08:09:57;;;;;;;13.02;1.98;;;;;;;8.02;100.00;102745.00;5277494;28;20025;-83
2022/03/17 08:12:31;;;;;;;7.60;1.60;;;;;;;8.02;100.00;102746.81;5280711;28;20083;-83
2022/03/17 08:15:05;;;;;;;7.10;1.85;;;;;;;8.00;100.00;102751.34;5262794;28;20124;-83
2022/03/17 08:17:36;;;;;;;13.50;1.90;;;;;;;7.99;100.00;102747.81;5280734;28;20025;-82
2022/03/17 08:20:08;;;;;;;10.65;1.95;;;;;;;8.14;100.00;102757.66;5283535;28;20106;-83
2022/03/17 08:22:42;;;;;;;11.05;1.92;;;;;;;8.44;100.00;102765.00;5284659;28;20029;-83
2022/03/17 08:25:13;;;;;;;11.85;2.58;;;;;;;8.57;100.00;102785.63;5281684;28;20021;-83
2022/03/17 08:27:45;;;;;;;10.35;2.00;;;;;;;8.69;100.00;102780.50;5284690;28;20028;-83
2022/03/17 08:30:16;;;;;;;13.98;2.42;;;;;;;8.97;100.00;102781.66;5285262;28;20029;-83
2022/03/17 08:32:49;;;;;;;11.05;1.48;;;;;;;9.18;100.00;102789.41;5265970;28;20056;-84
2022/03/17 08:35:20;;;;;;;7.18;1.63;;;;;;;9.28;100.00;102786.13;5284188;28;20448;-83
2022/03/17 08:37:51;;;;;;;8.90;1.50;;;;;;;9.42;100.00;102797.81;5265514;28;20335;-83
2022/03/17 08:40:23;;;;;;;4.25;1.17;;;;;;;9.44;100.00;102806.56;5282938;28;20521;-81
2022/03/17 08:42:54;;;;;;;7.80;1.90;;;;;;;9.51;100.00;102801.75;5283360;28;20056;-82
2022/03/17 08:51:06;;;;;;;7.45;1.33;;;;;;;9.57;100.00;102834.25;5283638;28;20421;-83
2022/03/17 08:53:37;;;;;;;10.18;1.60;;;;;;;9.59;100.00;102829.69;5266039;28;20036;-83
2022/03/17 08:56:09;;;;;;;9.93;1.80;;;;;;;9.58;100.00;102819.97;5284054;28;20029;-83
2022/03/17 08:58:40;;;;;;;11.27;1.90;;;;;;;9.82;100.00;102831.03;5265017;28;20370;-82
2022/03/17 09:01:11;;;;;;;11.13;2.30;;;;;;;9.99;100.00;102823.84;5284061;28;20473;-83
2022/03/17 09:03:42;;;;;;;9.20;1.92;;;;;;;9.85;100.00;102843.31;5284285;28;20029;-80
2022/03/17 09:06:14;;;;;;;9.90;2.03;;;;;;;9.72;100.00;102839.66;5286974;28;20579;-84
2022/03/17 09:08:45;;;;;;;7.95;1.98;;;;;;;9.72;100.00;102845.81;5285708;28;20505;-83
2022/03/17 09:11:16;;;;;;;10.80;1.52;;;;;;;9.79;100.00;102846.34;5285838;28;20432;-83
2022/03/17 09:13:49;;;;;;;9.43;1.85;;;;;;;9.67;100.00;102863.88;5286533;28;20037;-83
2022/03/17 09:16:21;;;;;;;8.93;1.70;;;;;;;9.62;100.00;102861.50;5285783;28;20469;-84
2022/03/17 09:18:52;;;;;;;9.77;1.67;;;;;;;9.71;100.00;102865.44;5288440;28;20028;-81
2022/03/17 09:22:01;;;;;;;8.75;1.60;;;;;;;9.70;100.00;102877.03;5274533;28;20399;-84
2022/03/17 09:24:48;;;;;;;14.18;2.13;;;;;;;9.35;100.00;102858.56;5294390;28;20025;-81
2022/03/17 09:27:31;;;;;;;7.95;2.33;;;;;;;9.37;100.00;102866.47;5263600;28;20128;-81
2022/03/17 09:30:12;;;;;;;10.75;1.38;;;;;;;9.71;100.00;102880.56;5285057;28;20063;-82
2022/03/17 09:32:54;;;;;;;10.18;1.73;;;;;;;9.69;100.00;102864.66;5261871;28;20422;-83
2022/03/17 09:38:25;;;;;;;9.32;2.72;;;;;;;9.83;100.00;102887.84;5259050;28;20410;-79
2022/03/17 09:47:44;;;;;;;10.18;1.60;;;;;;;10.18;100.00;102906.28;5253955;28;20068;-82
2022/03/17 09:50:19;;;;;;;12.77;1.90;;;;;;;10.18;100.00;102909.81;5260704;28;20022;-81
2022/03/17 09:52:59;;;;;;;6.97;1.55;;;;;;;10.06;100.00;102899.00;5266417;28;20041;-81
2022/03/17 09:55:30;;;;;;;8.63;1.52;;;;;;;10.03;100.00;102918.72;5243750;28;20033;-79
2022/03/17 09:58:08;;;;;;;6.30;1.52;;;;;;;10.09;100.00;102925.50;5261360;28;20512;-80
2022/03/17 10:00:55;;;;;;;7.55;1.50;;;;;;;10.10;100.00;102927.19;5261069;28;20571;-79
2022/03/17 10:03:32;;;;;;;10.75;1.80;;;;;;;10.07;100.00;102936.25;5257670;28;20047;-81
2022/03/17 10:06:07;;;;;;;7.38;1.98;;;;;;;10.13;100.00;102903.91;5281985;28;20032;-80
2022/03/17 10:08:58;;;;;;;9.50;1.88;;;;;;;10.57;100.00;102956.47;5265693;28;20080;-82
2022/03/17 10:15:18;;;;;;;10.85;2.63;;;;;;;10.70;100.00;102918.38;5198679;28;20053;-77
2022/03/17 10:17:49;;;;;;;11.75;2.25;;;;;;;10.74;100.00;102927.91;5232178;28;20037;-78
2022/03/17 10:20:24;;;;;;;8.95;1.70;;;;;;;10.95;100.00;102958.63;5282584;28;20397;-76
2022/03/17 10:22:58;;;;;;;7.10;1.55;;;;;;;11.27;100.00;102974.53;5280495;28;20496;-78
2022/03/17 10:25:31;;;;;;;7.57;1.52;;;;;;;11.59;100.00;102978.78;5281842;28;20073;-78
2022/03/17 10:28:04;;;;;;;9.60;1.80;;;;;;;11.57;100.00;102989.59;5264725;28;20025;-79
2022/03/17 10:30:35;;;;;;;11.48;1.55;;;;;;;11.42;100.00;102975.38;5282608;28;20074;-81
2022/03/17 10:33:14;;;;;;;10.98;1.63;;;;;;;11.67;100.00;102993.38;5264418;28;20782;-79
2022/03/17 10:35:48;;;;;;;7.88;1.73;;;;;;;11.66;100.00;102993.50;5280097;28;20029;-80
2022/03/17 10:38:22;;;;;;;17.05;2.60;;;;;;;11.74;100.00;102996.53;5264228;28;20112;-77
2022/03/17 10:41:04;;;;;;;12.00;1.60;;;;;;;11.89;100.00;102994.72;5281033;28;20083;-80
2022/03/17 10:43:39;;;;;;;10.77;1.80;;;;;;;11.57;100.00;103002.09;5274467;28;20116;-79
2022/03/17 10:46:16;;;;;;;9.48;1.95;;;;;;;11.45;100.00;102996.56;5280140;28;20041;-80
2022/03/17 10:49:01;;;;;;;8.70;1.80;;;;;;;11.46;100.00;103016.13;5261342;28;20099;-80
2022/03/17 10:51:33;;;;;;;12.25;1.95;;;;;;;11.30;100.00;103021.56;5279710;28;20124;-80
2022/03/17 10:54:19;;;;;;;11.05;1.80;;;;;;;11.42;100.00;103019.94;5281465;28;20025;-77
2022/03/17 10:57:08;;;;;;;11.32;1.88;;;;;;;11.33;100.00;103024.91;5277658;28;20033;-77
2022/03/17 10:59:46;;;;;;;11.90;1.90;;;;;;;11.11;100.00;103030.66;5278714;28;20477;-77
2022/03/17 11:02:18;;;;;;;11.75;1.80;;;;;;;11.00;100.00;103046.50;5277474;28;20051;-77
2022/03/17 11:04:49;;;;;;;8.55;1.92;;;;;;;10.99;100.00;103050.09;5280280;28;20037;-77
2022/03/17 11:07:23;;;;;;;6.22;1.40;;;;;;;11.05;100.00;103055.09;5270323;28;20030;-77
2022/03/17 11:09:55;;;;;;;5.28;1.05;;;;;;;11.25;100.00;103061.03;5269594;28;20029;-77
2022/03/17 11:12:26;;;;;;;9.50;1.50;;;;;;;11.67;100.00;103059.38;5250766;28;20041;-77
2022/03/17 11:14:57;;;;;;;7.38;1.45;;;;;;;12.46;100.00;103065.94;5243677;28;20033;-77
2022/03/17 11:17:38;;;;;;;7.50;1.40;;;;;;;13.15;100.00;103060.50;5260668;28;20124;-77
2022/03/17 11:20:12;;;;;;;5.90;1.60;;;;;;;13.32;98.44;103070.91;5277217;28;20425;-77
2022/03/17 11:22:50;;;;;;;4.72;1.63;;;;;;;13.66;88.08;103073.94;5277434;28;20500;-77
2022/03/17 11:25:26;;;;;;;9.07;1.63;;;;;;;13.87;83.16;103073.38;5263090;28;20031;-77
2022/03/17 11:27:59;;;;;;;5.85;1.48;;;;;;;14.09;73.99;103078.03;5281784;28;20469;-77
2022/03/17 11:30:43;;;;;;;10.02;2.03;;;;;;;13.98;77.19;103070.78;5281900;28;20025;-77
2022/03/17 11:33:27;;;;;;;6.13;1.33;;;;;;;13.84;81.78;103081.63;5281242;28;20013;-77
2022/03/17 11:36:12;;;;;;;6.72;2.05;;;;;;;13.87;91.93;103084.13;5281899;28;20496;-77
2022/03/17 11:38:55;;;;;;;5.38;1.48;;;;;;;14.20;84.98;103088.88;5263397;28;20052;-77
2022/03/17 11:41:27;;;;;;;5.63;1.30;;;;;;;14.28;78.08;103086.47;5280440;28;20516;-77
2022/03/17 11:44:01;;;;;;;7.82;1.88;;;;;;;13.84;72.77;103087.84;5282145;28;20362;-77
2022/03/17 11:46:41;;;;;;;8.18;1.85;;;;;;;13.77;78.26;103091.94;5262858;28;20025;-77
2022/03/17 11:49:22;;;;;;;8.30;1.65;;;;;;;13.84;81.43;103097.72;5281383;28;20017;-77
2022/03/17 11:52:02;;;;;;;9.13;1.98;;;;;;;13.93;84.96;103095.22;5277959;28;20446;-77
2022/03/17 11:54:33;;;;;;;8.27;2.20;;;;;;;13.94;81.98;103113.06;5249699;28;20037;-78
2022/03/17 11:57:07;;;;;;;9.45;2.13;;;;;;;13.90;79.69;103111.56;5284441;28;20568;-77
2022/03/17 11:59:51;;;;;;;8.63;2.20;;;;;;;14.21;80.14;103112.03;5282526;28;20029;-77
2022/03/17 12:02:29;;;;;;;7.50;1.90;;;;;;;14.46;75.81;103121.00;5278426;28;20039;-77
2022/03/17 12:05:14;;;;;;;5.10;1.88;;;;;;;14.72;77.45;103113.72;5268973;28;20021;-77
2022/03/17 12:07:46;;;;;;;8.10;2.28;;;;;;;14.84;73.92;103118.19;5266199;28;20032;-77
2022/03/17 12:11:02;;;;;;;8.18;1.90;;;;;;;15.69;74.77;103117.94;5278273;28;20430;-78
2022/03/17 12:13:36;;;;;;;10.40;2.63;;;;;;;15.79;69.02;103120.78;5263343;28;20030;-77